sensor_id;sensor_type;location;lat;lon;timestamp;P1;durP1;ratioP1;P2;durP2;ratioP2
22557;SDS011;11445;53.816;8.902;2023-04-30T00:00:49;10.20;;;2.38;;
22557;SDS011;11445;53.816;8.902;2023-04-30T00:03:16;4.05;;;2.40;;
22557;SDS011;11445;53.816;8.902;2023-04-30T00:05:43;5.05;;;2.13;;
22557;SDS011;11445;53.816;8.902;2023-04-30T00:08:11;4.25;;;2.00;;
22557;SDS011;11445;53.816;8.902;2023-04-30T00:10:38;14.00;;;2.30;;
22557;SDS011;11445;53.816;8.902;2023-04-30T00:13:05;7.22;;;1.80;;
22557;SDS011;11445;53.816;8.902;2023-04-30T00:15:34;8.43;;;2.33;;
22557;SDS011;11445;53.816;8.902;2023-04-30T00:18:01;9.23;;;2.40;;
22557;SDS011;11445;53.816;8.902;2023-04-30T00:20:28;7.55;;;2.50;;
22557;SDS011;11445;53.816;8.902;2023-04-30T00:22:56;5.63;;;2.85;;
22557;SDS011;11445;53.816;8.902;2023-04-30T00:25:24;4.90;;;2.20;;
22557;SDS011;11445;53.816;8.902;2023-04-30T00:27:51;11.30;;;2.95;;
22557;SDS011;11445;53.816;8.902;2023-04-30T00:30:19;8.88;;;2.08;;
22557;SDS011;11445;53.816;8.902;2023-04-30T00:32:46;13.15;;;2.90;;
22557;SDS011;11445;53.816;8.902;2023-04-30T00:35:13;8.98;;;2.70;;
22557;SDS011;11445;53.816;8.902;2023-04-30T00:37:41;6.97;;;2.63;;
22557;SDS011;11445;53.816;8.902;2023-04-30T00:40:08;10.45;;;2.42;;
22557;SDS011;11445;53.816;8.902;2023-04-30T00:42:37;5.25;;;2.20;;
22557;SDS011;11445;53.816;8.902;2023-04-30T00:45:05;5.68;;;2.20;;
22557;SDS011;11445;53.816;8.902;2023-04-30T00:47:32;4.30;;;2.05;;
22557;SDS011;11445;53.816;8.902;2023-04-30T00:50:00;10.45;;;2.50;;
22557;SDS011;11445;53.816;8.902;2023-04-30T00:52:27;12.25;;;2.78;;
22557;SDS011;11445;53.816;8.902;2023-04-30T00:54:54;5.57;;;2.30;;
22557;SDS011;11445;53.816;8.902;2023-04-30T00:57:22;7.57;;;2.70;;
22557;SDS011;11445;53.816;8.902;2023-04-30T00:59:51;7.82;;;2.20;;
22557;SDS011;11445;53.816;8.902;2023-04-30T01:02:19;8.82;;;2.30;;
22557;SDS011;11445;53.816;8.902;2023-04-30T01:04:46;10.25;;;2.88;;
22557;SDS011;11445;53.816;8.902;2023-04-30T01:07:15;14.05;;;2.80;;
22557;SDS011;11445;53.816;8.902;2023-04-30T01:09:42;13.27;;;2.42;;
22557;SDS011;11445;53.816;8.902;2023-04-30T01:12:09;13.55;;;2.63;;
22557;SDS011;11445;53.816;8.902;2023-04-30T01:14:44;13.98;;;3.28;;
22557;SDS011;11445;53.816;8.902;2023-04-30T01:17:30;13.32;;;3.10;;
22557;SDS011;11445;53.816;8.902;2023-04-30T01:19:59;17.85;;;2.30;;
22557;SDS011;11445;53.816;8.902;2023-04-30T01:22:45;7.50;;;2.17;;
22557;SDS011;11445;53.816;8.902;2023-04-30T01:25:24;13.98;;;2.60;;
22557;SDS011;11445;53.816;8.902;2023-04-30T01:28:17;13.43;;;3.05;;
22557;SDS011;11445;53.816;8.902;2023-04-30T01:30:44;12.88;;;2.83;;
22557;SDS011;11445;53.816;8.902;2023-04-30T01:33:12;11.80;;;3.22;;
22557;SDS011;11445;53.816;8.902;2023-04-30T01:35:50;14.65;;;2.97;;
22557;SDS011;11445;53.816;8.902;2023-04-30T01:38:44;8.82;;;2.38;;
22557;SDS011;11445;53.816;8.902;2023-04-30T01:41:32;9.75;;;2.55;;
22557;SDS011;11445;53.816;8.902;2023-04-30T01:44:11;9.95;;;2.75;;
22557;SDS011;11445;53.816;8.902;2023-04-30T01:46:45;12.68;;;2.50;;
22557;SDS011;11445;53.816;8.902;2023-04-30T01:49:23;10.27;;;2.78;;
22557;SDS011;11445;53.816;8.902;2023-04-30T01:51:59;10.05;;;2.78;;
22557;SDS011;11445;53.816;8.902;2023-04-30T01:54:35;7.15;;;3.10;;
22557;SDS011;11445;53.816;8.902;2023-04-30T01:57:12;5.75;;;2.53;;
22557;SDS011;11445;53.816;8.902;2023-04-30T01:59:44;10.10;;;2.58;;
22557;SDS011;11445;53.816;8.902;2023-04-30T02:02:12;5.40;;;2.00;;
22557;SDS011;11445;53.816;8.902;2023-04-30T02:04:39;13.65;;;2.97;;
22557;SDS011;11445;53.816;8.902;2023-04-30T02:07:07;10.27;;;2.67;;
22557;SDS011;11445;53.816;8.902;2023-04-30T02:09:34;6.13;;;2.90;;
22557;SDS011;11445;53.816;8.902;2023-04-30T02:12:01;7.13;;;2.83;;
22557;SDS011;11445;53.816;8.902;2023-04-30T02:14:29;11.85;;;2.75;;
22557;SDS011;11445;53.816;8.902;2023-04-30T02:16:58;13.85;;;2.72;;
22557;SDS011;11445;53.816;8.902;2023-04-30T02:19:25;13.07;;;2.88;;
22557;SDS011;11445;53.816;8.902;2023-04-30T02:21:52;12.77;;;3.42;;
22557;SDS011;11445;53.816;8.902;2023-04-30T02:24:19;8.40;;;3.00;;
22557;SDS011;11445;53.816;8.902;2023-04-30T02:26:46;6.70;;;2.35;;
22557;SDS011;11445;53.816;8.902;2023-04-30T02:29:13;7.70;;;2.65;;
22557;SDS011;11445;53.816;8.902;2023-04-30T02:31:41;11.15;;;2.72;;
22557;SDS011;11445;53.816;8.902;2023-04-30T02:34:09;7.18;;;2.22;;
22557;SDS011;11445;53.816;8.902;2023-04-30T02:36:36;9.52;;;2.40;;
22557;SDS011;11445;53.816;8.902;2023-04-30T02:39:03;8.43;;;2.33;;
22557;SDS011;11445;53.816;8.902;2023-04-30T02:41:31;7.78;;;2.25;;
22557;SDS011;11445;53.816;8.902;2023-04-30T02:43:58;11.40;;;2.70;;
22557;SDS011;11445;53.816;8.902;2023-04-30T02:46:25;9.13;;;3.15;;
22557;SDS011;11445;53.816;8.902;2023-04-30T02:48:52;7.85;;;2.55;;
22557;SDS011;11445;53.816;8.902;2023-04-30T02:51:20;9.40;;;2.38;;
22557;SDS011;11445;53.816;8.902;2023-04-30T02:53:47;6.20;;;2.80;;
22557;SDS011;11445;53.816;8.902;2023-04-30T02:56:15;12.07;;;2.80;;
22557;SDS011;11445;53.816;8.902;2023-04-30T02:58:42;7.75;;;2.15;;
22557;SDS011;11445;53.816;8.902;2023-04-30T03:01:09;11.63;;;2.45;;
22557;SDS011;11445;53.816;8.902;2023-04-30T03:03:36;12.57;;;2.38;;
22557;SDS011;11445;53.816;8.902;2023-04-30T03:06:03;6.63;;;2.35;;
22557;SDS011;11445;53.816;8.902;2023-04-30T03:08:32;8.18;;;2.22;;
22557;SDS011;11445;53.816;8.902;2023-04-30T03:10:59;7.75;;;2.40;;
22557;SDS011;11445;53.816;8.902;2023-04-30T03:13:26;5.63;;;2.00;;
22557;SDS011;11445;53.816;8.902;2023-04-30T03:15:56;18.20;;;2.95;;
22557;SDS011;11445;53.816;8.902;2023-04-30T03:18:24;6.97;;;2.35;;
22557;SDS011;11445;53.816;8.902;2023-04-30T03:20:52;14.63;;;2.55;;
22557;SDS011;11445;53.816;8.902;2023-04-30T03:23:19;13.23;;;2.85;;
22557;SDS011;11445;53.816;8.902;2023-04-30T03:25:47;10.32;;;2.95;;
22557;SDS011;11445;53.816;8.902;2023-04-30T03:28:15;10.02;;;3.13;;
22557;SDS011;11445;53.816;8.902;2023-04-30T03:30:42;13.85;;;3.08;;
22557;SDS011;11445;53.816;8.902;2023-04-30T03:33:09;9.20;;;3.30;;
22557;SDS011;11445;53.816;8.902;2023-04-30T03:35:36;4.63;;;2.40;;
22557;SDS011;11445;53.816;8.902;2023-04-30T03:38:03;14.18;;;2.92;;
22557;SDS011;11445;53.816;8.902;2023-04-30T03:40:30;12.32;;;2.97;;
22557;SDS011;11445;53.816;8.902;2023-04-30T03:42:59;12.23;;;3.38;;
22557;SDS011;11445;53.816;8.902;2023-04-30T03:45:26;16.05;;;3.40;;
22557;SDS011;11445;53.816;8.902;2023-04-30T03:47:53;11.32;;;3.10;;
22557;SDS011;11445;53.816;8.902;2023-04-30T03:50:20;8.95;;;2.67;;
22557;SDS011;11445;53.816;8.902;2023-04-30T03:52:47;10.23;;;2.47;;
22557;SDS011;11445;53.816;8.902;2023-04-30T03:55:14;8.52;;;2.65;;
22557;SDS011;11445;53.816;8.902;2023-04-30T03:57:41;7.93;;;2.58;;
22557;SDS011;11445;53.816;8.902;2023-04-30T04:00:10;11.35;;;2.50;;
22557;SDS011;11445;53.816;8.902;2023-04-30T04:02:38;11.38;;;2.63;;
22557;SDS011;11445;53.816;8.902;2023-04-30T04:05:06;14.07;;;3.05;;
22557;SDS011;11445;53.816;8.902;2023-04-30T04:07:33;9.05;;;3.08;;
22557;SDS011;11445;53.816;8.902;2023-04-30T04:10:00;5.95;;;2.42;;
22557;SDS011;11445;53.816;8.902;2023-04-30T04:12:27;7.93;;;2.80;;
22557;SDS011;11445;53.816;8.902;2023-04-30T04:14:54;11.57;;;3.63;;
22557;SDS011;11445;53.816;8.902;2023-04-30T04:17:23;6.78;;;2.67;;
22557;SDS011;11445;53.816;8.902;2023-04-30T04:19:50;18.58;;;2.65;;
22557;SDS011;11445;53.816;8.902;2023-04-30T04:22:17;8.50;;;2.63;;
22557;SDS011;11445;53.816;8.902;2023-04-30T04:24:44;8.60;;;2.55;;
22557;SDS011;11445;53.816;8.902;2023-04-30T04:27:12;14.63;;;3.08;;
22557;SDS011;11445;53.816;8.902;2023-04-30T04:29:39;10.20;;;3.15;;
22557;SDS011;11445;53.816;8.902;2023-04-30T04:32:06;11.75;;;2.78;;
22557;SDS011;11445;53.816;8.902;2023-04-30T04:34:35;9.27;;;2.88;;
22557;SDS011;11445;53.816;8.902;2023-04-30T04:37:03;11.70;;;2.72;;
22557;SDS011;11445;53.816;8.902;2023-04-30T04:39:30;6.22;;;2.38;;
22557;SDS011;11445;53.816;8.902;2023-04-30T04:41:57;14.80;;;3.13;;
22557;SDS011;11445;53.816;8.902;2023-04-30T04:44:25;12.10;;;2.40;;
22557;SDS011;11445;53.816;8.902;2023-04-30T04:46:53;10.32;;;3.13;;
22557;SDS011;11445;53.816;8.902;2023-04-30T04:49:20;13.30;;;2.90;;
22557;SDS011;11445;53.816;8.902;2023-04-30T04:51:49;12.13;;;2.95;;
22557;SDS011;11445;53.816;8.902;2023-04-30T04:54:16;8.20;;;2.58;;
22557;SDS011;11445;53.816;8.902;2023-04-30T04:56:43;4.93;;;2.17;;
22557;SDS011;11445;53.816;8.902;2023-04-30T04:59:10;9.85;;;2.58;;
22557;SDS011;11445;53.816;8.902;2023-04-30T05:01:37;7.28;;;3.13;;
22557;SDS011;11445;53.816;8.902;2023-04-30T05:04:04;12.20;;;3.08;;
22557;SDS011;11445;53.816;8.902;2023-04-30T05:06:33;4.90;;;2.70;;
22557;SDS011;11445;53.816;8.902;2023-04-30T05:09:01;12.88;;;2.58;;
22557;SDS011;11445;53.816;8.902;2023-04-30T05:11:30;6.93;;;3.03;;
22557;SDS011;11445;53.816;8.902;2023-04-30T05:13:57;8.35;;;2.53;;
22557;SDS011;11445;53.816;8.902;2023-04-30T05:16:24;9.95;;;2.83;;
22557;SDS011;11445;53.816;8.902;2023-04-30T05:18:51;10.75;;;3.33;;
22557;SDS011;11445;53.816;8.902;2023-04-30T05:21:18;13.40;;;3.55;;
22557;SDS011;11445;53.816;8.902;2023-04-30T05:23:46;7.13;;;2.95;;
22557;SDS011;11445;53.816;8.902;2023-04-30T05:26:14;10.13;;;2.72;;
22557;SDS011;11445;53.816;8.902;2023-04-30T05:28:41;6.10;;;2.80;;
22557;SDS011;11445;53.816;8.902;2023-04-30T05:31:08;10.57;;;2.53;;
22557;SDS011;11445;53.816;8.902;2023-04-30T05:33:35;7.78;;;2.67;;
22557;SDS011;11445;53.816;8.902;2023-04-30T05:36:02;11.32;;;2.65;;
22557;SDS011;11445;53.816;8.902;2023-04-30T05:38:29;12.25;;;2.55;;
22557;SDS011;11445;53.816;8.902;2023-04-30T05:40:56;7.45;;;2.10;;
22557;SDS011;11445;53.816;8.902;2023-04-30T05:43:25;15.65;;;2.28;;
22557;SDS011;11445;53.816;8.902;2023-04-30T05:45:52;12.13;;;2.22;;
22557;SDS011;11445;53.816;8.902;2023-04-30T05:48:19;8.45;;;2.60;;
22557;SDS011;11445;53.816;8.902;2023-04-30T05:50:46;8.07;;;2.17;;
22557;SDS011;11445;53.816;8.902;2023-04-30T05:53:13;12.63;;;3.10;;
22557;SDS011;11445;53.816;8.902;2023-04-30T05:55:40;10.40;;;2.60;;
22557;SDS011;11445;53.816;8.902;2023-04-30T05:58:07;10.45;;;2.83;;
22557;SDS011;11445;53.816;8.902;2023-04-30T06:00:36;8.80;;;2.38;;
22557;SDS011;11445;53.816;8.902;2023-04-30T06:03:03;9.13;;;2.60;;
22557;SDS011;11445;53.816;8.902;2023-04-30T06:05:30;13.38;;;3.10;;
22557;SDS011;11445;53.816;8.902;2023-04-30T06:07:57;12.32;;;2.40;;
22557;SDS011;11445;53.816;8.902;2023-04-30T06:10:24;16.20;;;3.20;;
22557;SDS011;11445;53.816;8.902;2023-04-30T06:12:52;5.75;;;2.30;;
22557;SDS011;11445;53.816;8.902;2023-04-30T06:15:19;10.63;;;2.50;;
22557;SDS011;11445;53.816;8.902;2023-04-30T06:17:47;7.22;;;2.60;;
22557;SDS011;11445;53.816;8.902;2023-04-30T06:20:14;6.57;;;2.08;;
22557;SDS011;11445;53.816;8.902;2023-04-30T06:22:41;22.95;;;3.25;;
22557;SDS011;11445;53.816;8.902;2023-04-30T06:25:08;4.00;;;1.85;;
22557;SDS011;11445;53.816;8.902;2023-04-30T06:27:35;7.60;;;2.67;;
22557;SDS011;11445;53.816;8.902;2023-04-30T06:30:03;6.95;;;2.15;;
22557;SDS011;11445;53.816;8.902;2023-04-30T06:32:30;7.43;;;2.25;;
22557;SDS011;11445;53.816;8.902;2023-04-30T06:34:59;9.10;;;2.88;;
22557;SDS011;11445;53.816;8.902;2023-04-30T06:37:26;5.53;;;2.08;;
22557;SDS011;11445;53.816;8.902;2023-04-30T06:39:53;15.52;;;2.40;;
22557;SDS011;11445;53.816;8.902;2023-04-30T06:42:20;11.55;;;3.03;;
22557;SDS011;11445;53.816;8.902;2023-04-30T06:44:47;6.63;;;2.15;;
22557;SDS011;11445;53.816;8.902;2023-04-30T06:47:14;8.15;;;2.20;;
22557;SDS011;11445;53.816;8.902;2023-04-30T06:49:41;9.77;;;2.58;;
22557;SDS011;11445;53.816;8.902;2023-04-30T06:52:09;13.15;;;2.75;;
22557;SDS011;11445;53.816;8.902;2023-04-30T06:54:36;7.45;;;2.33;;
22557;SDS011;11445;53.816;8.902;2023-04-30T06:57:03;4.18;;;2.03;;
22557;SDS011;11445;53.816;8.902;2023-04-30T06:59:31;9.48;;;2.10;;
22557;SDS011;11445;53.816;8.902;2023-04-30T07:01:58;8.88;;;2.22;;
22557;SDS011;11445;53.816;8.902;2023-04-30T07:04:25;5.43;;;1.98;;
22557;SDS011;11445;53.816;8.902;2023-04-30T07:06:52;9.73;;;1.85;;
22557;SDS011;11445;53.816;8.902;2023-04-30T07:09:21;9.65;;;2.22;;
22557;SDS011;11445;53.816;8.902;2023-04-30T07:11:48;11.10;;;2.72;;
22557;SDS011;11445;53.816;8.902;2023-04-30T07:14:16;9.93;;;2.35;;
22557;SDS011;11445;53.816;8.902;2023-04-30T07:16:43;8.55;;;2.00;;
22557;SDS011;11445;53.816;8.902;2023-04-30T07:19:10;6.82;;;2.05;;
22557;SDS011;11445;53.816;8.902;2023-04-30T07:21:37;13.93;;;2.58;;
22557;SDS011;11445;53.816;8.902;2023-04-30T07:24:05;7.50;;;2.00;;
22557;SDS011;11445;53.816;8.902;2023-04-30T07:26:33;8.38;;;2.75;;
22557;SDS011;11445;53.816;8.902;2023-04-30T07:29:00;9.52;;;2.58;;
22557;SDS011;11445;53.816;8.902;2023-04-30T07:31:28;6.88;;;1.88;;
22557;SDS011;11445;53.816;8.902;2023-04-30T07:33:55;10.32;;;2.22;;
22557;SDS011;11445;53.816;8.902;2023-04-30T07:36:22;9.45;;;2.35;;
22557;SDS011;11445;53.816;8.902;2023-04-30T07:38:51;4.18;;;2.22;;
22557;SDS011;11445;53.816;8.902;2023-04-30T07:41:18;10.15;;;2.22;;
22557;SDS011;11445;53.816;8.902;2023-04-30T07:43:47;6.40;;;2.40;;
22557;SDS011;11445;53.816;8.902;2023-04-30T07:46:14;7.88;;;2.13;;
22557;SDS011;11445;53.816;8.902;2023-04-30T07:48:41;7.50;;;2.38;;
22557;SDS011;11445;53.816;8.902;2023-04-30T07:51:08;10.45;;;2.25;;
22557;SDS011;11445;53.816;8.902;2023-04-30T07:53:35;11.80;;;2.60;;
22557;SDS011;11445;53.816;8.902;2023-04-30T07:56:03;9.15;;;1.85;;
22557;SDS011;11445;53.816;8.902;2023-04-30T07:58:30;3.85;;;1.75;;
22557;SDS011;11445;53.816;8.902;2023-04-30T08:00:59;10.95;;;2.38;;
22557;SDS011;11445;53.816;8.902;2023-04-30T08:03:26;10.15;;;1.80;;
22557;SDS011;11445;53.816;8.902;2023-04-30T08:05:53;5.15;;;2.03;;
22557;SDS011;11445;53.816;8.902;2023-04-30T08:08:20;12.20;;;2.20;;
22557;SDS011;11445;53.816;8.902;2023-04-30T08:10:47;7.32;;;2.10;;
22557;SDS011;11445;53.816;8.902;2023-04-30T08:13:14;7.38;;;2.97;;
22557;SDS011;11445;53.816;8.902;2023-04-30T08:15:41;3.00;;;1.65;;
22557;SDS011;11445;53.816;8.902;2023-04-30T08:18:09;7.22;;;2.42;;
22557;SDS011;11445;53.816;8.902;2023-04-30T08:20:37;9.75;;;2.13;;
22557;SDS011;11445;53.816;8.902;2023-04-30T08:23:04;6.80;;;2.33;;
22557;SDS011;11445;53.816;8.902;2023-04-30T08:25:31;8.77;;;2.15;;
22557;SDS011;11445;53.816;8.902;2023-04-30T08:27:58;4.03;;;1.88;;
22557;SDS011;11445;53.816;8.902;2023-04-30T08:30:26;9.98;;;1.90;;
22557;SDS011;11445;53.816;8.902;2023-04-30T08:32:53;7.10;;;2.30;;
22557;SDS011;11445;53.816;8.902;2023-04-30T08:35:21;7.85;;;2.10;;
22557;SDS011;11445;53.816;8.902;2023-04-30T08:37:48;3.97;;;1.70;;
22557;SDS011;11445;53.816;8.902;2023-04-30T08:40:16;10.63;;;2.25;;
22557;SDS011;11445;53.816;8.902;2023-04-30T08:42:44;8.20;;;1.92;;
22557;SDS011;11445;53.816;8.902;2023-04-30T08:45:15;4.97;;;1.98;;
22557;SDS011;11445;53.816;8.902;2023-04-30T08:47:44;9.25;;;2.17;;
22557;SDS011;11445;53.816;8.902;2023-04-30T08:50:12;9.52;;;1.90;;
22557;SDS011;11445;53.816;8.902;2023-04-30T08:52:41;10.23;;;2.67;;
22557;SDS011;11445;53.816;8.902;2023-04-30T08:55:09;7.78;;;2.20;;
22557;SDS011;11445;53.816;8.902;2023-04-30T08:57:36;12.48;;;2.67;;
22557;SDS011;11445;53.816;8.902;2023-04-30T09:00:04;9.05;;;2.17;;
22557;SDS011;11445;53.816;8.902;2023-04-30T09:02:33;9.60;;;2.13;;
22557;SDS011;11445;53.816;8.902;2023-04-30T09:05:06;6.38;;;2.20;;
22557;SDS011;11445;53.816;8.902;2023-04-30T09:07:35;5.95;;;2.30;;
22557;SDS011;11445;53.816;8.902;2023-04-30T09:10:06;4.53;;;2.03;;
22557;SDS011;11445;53.816;8.902;2023-04-30T09:12:41;4.95;;;2.10;;
22557;SDS011;11445;53.816;8.902;2023-04-30T09:15:10;8.65;;;1.83;;
22557;SDS011;11445;53.816;8.902;2023-04-30T09:17:38;10.85;;;2.38;;
22557;SDS011;11445;53.816;8.902;2023-04-30T09:20:05;8.18;;;2.38;;
22557;SDS011;11445;53.816;8.902;2023-04-30T09:22:34;5.95;;;1.80;;
22557;SDS011;11445;53.816;8.902;2023-04-30T09:25:02;6.68;;;2.13;;
22557;SDS011;11445;53.816;8.902;2023-04-30T09:27:31;8.65;;;2.30;;
22557;SDS011;11445;53.816;8.902;2023-04-30T09:30:00;7.03;;;2.30;;
22557;SDS011;11445;53.816;8.902;2023-04-30T09:32:27;8.27;;;1.92;;
22557;SDS011;11445;53.816;8.902;2023-04-30T09:34:54;4.75;;;2.03;;
22557;SDS011;11445;53.816;8.902;2023-04-30T09:37:21;5.90;;;1.95;;
22557;SDS011;11445;53.816;8.902;2023-04-30T09:40:00;9.80;;;2.08;;
22557;SDS011;11445;53.816;8.902;2023-04-30T09:42:28;6.60;;;2.28;;
22557;SDS011;11445;53.816;8.902;2023-04-30T09:44:57;7.63;;;2.25;;
22557;SDS011;11445;53.816;8.902;2023-04-30T09:47:24;7.15;;;2.10;;
22557;SDS011;11445;53.816;8.902;2023-04-30T09:49:55;8.65;;;2.17;;
22557;SDS011;11445;53.816;8.902;2023-04-30T09:52:25;10.07;;;1.90;;
22557;SDS011;11445;53.816;8.902;2023-04-30T09:54:52;4.90;;;1.75;;
22557;SDS011;11445;53.816;8.902;2023-04-30T09:57:20;9.50;;;2.60;;
22557;SDS011;11445;53.816;8.902;2023-04-30T09:59:49;12.07;;;2.80;;
22557;SDS011;11445;53.816;8.902;2023-04-30T10:02:20;5.80;;;2.05;;
22557;SDS011;11445;53.816;8.902;2023-04-30T10:04:48;7.07;;;2.42;;
22557;SDS011;11445;53.816;8.902;2023-04-30T10:07:20;7.28;;;2.50;;
22557;SDS011;11445;53.816;8.902;2023-04-30T10:09:54;7.70;;;2.20;;
22557;SDS011;11445;53.816;8.902;2023-04-30T10:12:25;4.32;;;2.10;;
22557;SDS011;11445;53.816;8.902;2023-04-30T10:15:01;9.70;;;2.53;;
22557;SDS011;11445;53.816;8.902;2023-04-30T10:17:36;6.70;;;1.90;;
22557;SDS011;11445;53.816;8.902;2023-04-30T10:20:07;5.30;;;2.42;;
22557;SDS011;11445;53.816;8.902;2023-04-30T10:22:36;6.55;;;2.00;;
22557;SDS011;11445;53.816;8.902;2023-04-30T10:25:06;7.80;;;2.00;;
22557;SDS011;11445;53.816;8.902;2023-04-30T10:27:35;8.27;;;2.15;;
22557;SDS011;11445;53.816;8.902;2023-04-30T10:30:02;11.55;;;2.50;;
22557;SDS011;11445;53.816;8.902;2023-04-30T10:32:32;4.80;;;1.90;;
22557;SDS011;11445;53.816;8.902;2023-04-30T10:35:06;5.40;;;2.10;;
22557;SDS011;11445;53.816;8.902;2023-04-30T10:37:42;8.25;;;2.45;;
22557;SDS011;11445;53.816;8.902;2023-04-30T10:40:13;4.72;;;1.90;;
22557;SDS011;11445;53.816;8.902;2023-04-30T10:42:44;11.55;;;3.15;;
22557;SDS011;11445;53.816;8.902;2023-04-30T10:47:41;5.50;;;2.30;;
22557;SDS011;11445;53.816;8.902;2023-04-30T10:50:11;10.20;;;2.75;;
22557;SDS011;11445;53.816;8.902;2023-04-30T10:52:38;6.50;;;2.17;;
22557;SDS011;11445;53.816;8.902;2023-04-30T10:55:06;5.90;;;1.75;;
22557;SDS011;11445;53.816;8.902;2023-04-30T10:57:39;5.78;;;2.42;;
22557;SDS011;11445;53.816;8.902;2023-04-30T11:02:56;7.22;;;2.28;;
22557;SDS011;11445;53.816;8.902;2023-04-30T11:05:36;5.82;;;2.30;;
22557;SDS011;11445;53.816;8.902;2023-04-30T11:08:04;10.18;;;2.15;;
22557;SDS011;11445;53.816;8.902;2023-04-30T11:10:32;5.97;;;2.72;;
22557;SDS011;11445;53.816;8.902;2023-04-30T11:13:02;9.00;;;1.90;;
22557;SDS011;11445;53.816;8.902;2023-04-30T11:15:32;9.13;;;2.38;;
22557;SDS011;11445;53.816;8.902;2023-04-30T11:18:01;10.45;;;2.15;;
22557;SDS011;11445;53.816;8.902;2023-04-30T11:20:28;4.30;;;2.00;;
22557;SDS011;11445;53.816;8.902;2023-04-30T11:23:10;7.68;;;2.35;;
22557;SDS011;11445;53.816;8.902;2023-04-30T11:25:39;10.13;;;2.10;;
22557;SDS011;11445;53.816;8.902;2023-04-30T11:28:07;5.93;;;2.50;;
22557;SDS011;11445;53.816;8.902;2023-04-30T11:30:38;6.28;;;2.00;;
22557;SDS011;11445;53.816;8.902;2023-04-30T11:33:05;9.75;;;2.47;;
22557;SDS011;11445;53.816;8.902;2023-04-30T11:35:34;6.25;;;2.20;;
22557;SDS011;11445;53.816;8.902;2023-04-30T11:38:01;3.22;;;1.98;;
22557;SDS011;11445;53.816;8.902;2023-04-30T11:40:33;7.93;;;2.30;;
22557;SDS011;11445;53.816;8.902;2023-04-30T11:43:01;9.05;;;2.30;;
22557;SDS011;11445;53.816;8.902;2023-04-30T11:45:28;8.10;;;2.15;;
22557;SDS011;11445;53.816;8.902;2023-04-30T11:47:56;5.45;;;2.20;;
22557;SDS011;11445;53.816;8.902;2023-04-30T11:50:25;5.95;;;1.73;;
22557;SDS011;11445;53.816;8.902;2023-04-30T11:52:54;7.15;;;2.35;;
22557;SDS011;11445;53.816;8.902;2023-04-30T11:55:22;6.78;;;1.88;;
22557;SDS011;11445;53.816;8.902;2023-04-30T11:57:51;4.95;;;2.05;;
22557;SDS011;11445;53.816;8.902;2023-04-30T12:00:20;6.15;;;1.92;;
22557;SDS011;11445;53.816;8.902;2023-04-30T12:02:51;3.42;;;1.52;;
22557;SDS011;11445;53.816;8.902;2023-04-30T12:05:19;6.13;;;2.00;;
22557;SDS011;11445;53.816;8.902;2023-04-30T12:07:47;5.47;;;1.80;;
22557;SDS011;11445;53.816;8.902;2023-04-30T12:10:15;7.20;;;1.95;;
22557;SDS011;11445;53.816;8.902;2023-04-30T12:12:43;5.95;;;2.10;;
22557;SDS011;11445;53.816;8.902;2023-04-30T12:15:13;3.30;;;1.67;;
22557;SDS011;11445;53.816;8.902;2023-04-30T12:17:42;7.32;;;2.05;;
22557;SDS011;11445;53.816;8.902;2023-04-30T12:20:11;5.30;;;1.92;;
22557;SDS011;11445;53.816;8.902;2023-04-30T12:22:39;3.20;;;1.60;;
22557;SDS011;11445;53.816;8.902;2023-04-30T12:25:07;4.38;;;1.58;;
22557;SDS011;11445;53.816;8.902;2023-04-30T12:27:38;3.50;;;1.70;;
22557;SDS011;11445;53.816;8.902;2023-04-30T12:30:06;5.63;;;1.92;;
22557;SDS011;11445;53.816;8.902;2023-04-30T12:32:39;6.45;;;1.80;;
22557;SDS011;11445;53.816;8.902;2023-04-30T12:35:08;6.32;;;1.95;;
22557;SDS011;11445;53.816;8.902;2023-04-30T12:37:40;4.55;;;1.95;;
22557;SDS011;11445;53.816;8.902;2023-04-30T12:40:09;7.35;;;1.70;;
22557;SDS011;11445;53.816;8.902;2023-04-30T12:42:37;6.85;;;2.22;;
22557;SDS011;11445;53.816;8.902;2023-04-30T12:45:04;3.15;;;1.35;;
22557;SDS011;11445;53.816;8.902;2023-04-30T12:47:32;6.38;;;1.95;;
22557;SDS011;11445;53.816;8.902;2023-04-30T12:50:07;5.00;;;1.75;;
22557;SDS011;11445;53.816;8.902;2023-04-30T12:52:36;5.63;;;1.50;;
22557;SDS011;11445;53.816;8.902;2023-04-30T12:55:13;4.22;;;1.40;;
22557;SDS011;11445;53.816;8.902;2023-04-30T13:00:43;6.55;;;2.20;;
22557;SDS011;11445;53.816;8.902;2023-04-30T13:03:13;6.38;;;1.90;;
22557;SDS011;11445;53.816;8.902;2023-04-30T13:05:42;5.93;;;1.75;;
22557;SDS011;11445;53.816;8.902;2023-04-30T13:08:13;4.13;;;1.27;;
22557;SDS011;11445;53.816;8.902;2023-04-30T13:10:41;10.75;;;2.10;;
22557;SDS011;11445;53.816;8.902;2023-04-30T13:13:08;4.22;;;1.30;;
22557;SDS011;11445;53.816;8.902;2023-04-30T13:15:35;3.90;;;1.75;;
22557;SDS011;11445;53.816;8.902;2023-04-30T13:18:03;4.40;;;1.90;;
22557;SDS011;11445;53.816;8.902;2023-04-30T13:20:34;8.75;;;1.75;;
22557;SDS011;11445;53.816;8.902;2023-04-30T13:23:01;8.07;;;1.75;;
22557;SDS011;11445;53.816;8.902;2023-04-30T13:25:28;3.53;;;2.15;;
22557;SDS011;11445;53.816;8.902;2023-04-30T13:27:55;3.65;;;1.58;;
22557;SDS011;11445;53.816;8.902;2023-04-30T13:30:22;6.18;;;2.20;;
22557;SDS011;11445;53.816;8.902;2023-04-30T13:32:50;7.20;;;1.70;;
22557;SDS011;11445;53.816;8.902;2023-04-30T13:35:17;4.75;;;1.60;;
22557;SDS011;11445;53.816;8.902;2023-04-30T13:37:46;4.75;;;1.58;;
22557;SDS011;11445;53.816;8.902;2023-04-30T13:40:16;4.03;;;1.58;;
22557;SDS011;11445;53.816;8.902;2023-04-30T13:42:44;5.05;;;1.30;;
22557;SDS011;11445;53.816;8.902;2023-04-30T13:45:13;5.30;;;1.38;;
22557;SDS011;11445;53.816;8.902;2023-04-30T13:47:40;2.35;;;1.27;;
22557;SDS011;11445;53.816;8.902;2023-04-30T13:50:07;5.30;;;1.70;;
22557;SDS011;11445;53.816;8.902;2023-04-30T13:52:35;3.45;;;1.55;;
22557;SDS011;11445;53.816;8.902;2023-04-30T13:55:04;4.53;;;1.60;;
22557;SDS011;11445;53.816;8.902;2023-04-30T13:57:31;5.82;;;1.40;;
22557;SDS011;11445;53.816;8.902;2023-04-30T13:59:58;2.22;;;1.50;;
22557;SDS011;11445;53.816;8.902;2023-04-30T14:02:26;6.07;;;1.73;;
22557;SDS011;11445;53.816;8.902;2023-04-30T14:04:53;4.18;;;1.70;;
22557;SDS011;11445;53.816;8.902;2023-04-30T14:07:20;3.67;;;1.80;;
22557;SDS011;11445;53.816;8.902;2023-04-30T14:09:48;7.80;;;1.58;;
22557;SDS011;11445;53.816;8.902;2023-04-30T14:12:17;2.65;;;1.50;;
22557;SDS011;11445;53.816;8.902;2023-04-30T14:14:45;3.67;;;1.58;;
22557;SDS011;11445;53.816;8.902;2023-04-30T14:17:12;3.35;;;1.80;;
22557;SDS011;11445;53.816;8.902;2023-04-30T14:19:39;4.60;;;1.55;;
22557;SDS011;11445;53.816;8.902;2023-04-30T14:22:06;4.97;;;1.65;;
22557;SDS011;11445;53.816;8.902;2023-04-30T14:24:33;8.18;;;1.67;;
22557;SDS011;11445;53.816;8.902;2023-04-30T14:27:00;5.45;;;1.40;;
22557;SDS011;11445;53.816;8.902;2023-04-30T14:29:29;10.32;;;1.55;;
22557;SDS011;11445;53.816;8.902;2023-04-30T14:31:56;3.70;;;1.38;;
22557;SDS011;11445;53.816;8.902;2023-04-30T14:34:23;3.30;;;1.40;;
22557;SDS011;11445;53.816;8.902;2023-04-30T14:36:51;3.05;;;1.17;;
22557;SDS011;11445;53.816;8.902;2023-04-30T14:39:18;3.67;;;1.50;;
22557;SDS011;11445;53.816;8.902;2023-04-30T14:41:45;6.05;;;1.80;;
22557;SDS011;11445;53.816;8.902;2023-04-30T14:44:12;4.03;;;1.77;;
22557;SDS011;11445;53.816;8.902;2023-04-30T14:46:41;6.15;;;1.30;;
22557;SDS011;11445;53.816;8.902;2023-04-30T14:49:08;5.72;;;1.30;;
22557;SDS011;11445;53.816;8.902;2023-04-30T14:51:35;3.15;;;1.52;;
22557;SDS011;11445;53.816;8.902;2023-04-30T14:54:02;6.93;;;1.48;;
22557;SDS011;11445;53.816;8.902;2023-04-30T14:56:29;3.20;;;1.50;;
22557;SDS011;11445;53.816;8.902;2023-04-30T14:58:56;7.45;;;1.67;;